Time;durP1;ratioP1;P1;durP2;ratioP2;P2;SDS_P1;SDS_P2;PMS_P1;PMS_P2;Temp;Humidity;BMP_temperature;BMP_pressure;BME280_temperature;BME280_humidity;BME280_pressure;Samples;Min_cycle;Max_cycle;Signal;HPM_P1;HPM_P2
2022/06/20 00:01:41;;;;;;;;;;;;;;;;;;;;;
2022/06/20 00:05:35;;;;;;;;;;;;;;;;;;;;;
2022/06/20 00:09:49;;;;;;;16.20;5.00;;;;;;;22.30;46.01;98363.13;105694;1273;25213;-88
2022/06/20 00:13:58;;;;;;;14.70;5.00;;;;;;;22.21;46.02;98365.05;105613;1283;24384;-89
2022/06/20 00:20:48;;;;;;;;;;;;;;;;;;;;;
2022/06/20 00:24:20;;;;;;;;;;;;;;;;;;;;;
2022/06/20 00:28:18;;;;;;;14.20;5.00;;;;;;;21.83;46.82;98346.46;104524;1276;24372;-89
2022/06/20 00:30:56;;;;;;;15.00;4.60;;;;;;;21.78;47.00;98345.66;106131;1273;24750;-88
2022/06/20 00:34:32;;;;;;;;;;;;;;;;;;;;;
2022/06/20 00:38:06;;;;;;;13.90;4.30;;;;;;;21.64;47.32;98343.48;104995;1287;22874;-88
2022/06/20 00:45:14;;;;;;;14.00;4.40;;;;;;;21.50;47.58;98357.59;104755;1293;22710;-89
2022/06/20 00:49:16;;;;;;;;;;;;;;;;;;;;;
2022/06/20 00:52:51;;;;;;;;;;;;;;;;;;;;;
2022/06/20 00:56:25;;;;;;;;;;;;;;;;;;;;;
2022/06/20 01:00:06;;;;;;;12.20;4.10;;;;;;;21.47;48.10;98327.61;101825;1320;23961;-88
2022/06/20 01:07:00;;;;;;;13.40;4.70;;;;;;;21.39;48.37;98327.88;102894;1312;545116;-89
2022/06/20 01:10:05;;;;;;;12.80;4.40;;;;;;;21.34;48.51;98318.98;105720;1280;24206;-89
2022/06/20 01:13:09;;;;;;;13.20;4.70;;;;;;;21.26;48.45;98319.02;106058;1280;24203;-88
2022/06/20 01:16:06;;;;;;;11.50;4.50;;;;;;;21.21;48.69;98314.96;105691;1280;24242;-88
2022/06/20 01:22:55;;;;;;;;;;;;;;;;;;;;;
2022/06/20 01:26:18;;;;;;;14.80;5.10;;;;;;;21.13;49.02;98315.69;105280;1284;22566;-90
2022/06/20 01:29:31;;;;;;;11.80;4.90;;;;;;;21.06;49.07;98313.80;105140;1285;22726;-89
2022/06/20 01:32:37;;;;;;;17.60;6.80;;;;;;;21.06;49.38;98313.29;105589;1285;25925;-88
2022/06/20 01:43:02;;;;;;;;;;;;;;;;;;;;;
2022/06/20 01:46:08;;;;;;;25.40;7.80;;;;;;;20.94;49.90;98318.85;105126;1284;23997;-87
2022/06/20 01:49:15;;;;;;;19.40;7.10;;;;;;;20.87;50.03;98316.66;105357;1282;22572;-87
2022/06/20 01:52:55;;;;;;;15.10;5.90;;;;;;;20.82;50.13;98318.70;105910;1282;25469;-89
2022/06/20 01:55:42;;;;;;;12.90;5.70;;;;;;;20.71;50.30;98333.66;105672;1281;22585;-88
2022/06/20 01:58:55;;;;;;;13.90;5.70;;;;;;;20.56;50.43;98345.14;105535;1281;22560;-88
2022/06/20 02:02:53;;;;;;;15.30;6.00;;;;;;;20.38;50.62;98359.95;105046;1283;22715;-91
2022/06/20 02:05:35;;;;;;;14.70;6.30;;;;;;;20.26;50.93;98361.84;105805;1279;22557;-86
2022/06/20 02:08:37;;;;;;;18.10;6.30;;;;;;;20.15;50.95;98364.46;105696;1279;25567;-87
2022/06/20 02:11:58;;;;;;;15.20;6.00;;;;;;;20.04;51.39;98369.06;105751;1280;22522;-87
2022/06/20 02:18:45;;;;;;;15.60;5.00;;;;;;;19.73;51.69;98391.11;103847;1297;22667;-87
2022/06/20 02:21:47;;;;;;;12.10;4.60;;;;;;;19.65;51.92;98400.14;104128;1294;24774;-87
2022/06/20 02:24:57;;;;;;;15.90;5.10;;;;;;;19.61;52.07;98411.18;103876;1294;22581;-88
2022/06/20 02:28:20;;;;;;;;;;;;;;;;;;;;;
2022/06/20 02:31:54;;;;;;;;;;;;;;;;;;;;;
2022/06/20 02:35:08;;;;;;;16.20;5.20;;;;;;;19.33;52.78;98417.10;103155;1309;545909;-87
2022/06/20 02:37:53;;;;;;;13.20;5.30;;;;;;;19.25;52.97;98421.50;105507;1284;24206;-88
2022/06/20 02:40:49;;;;;;;9.10;4.40;;;;;;;19.19;53.01;98425.50;106480;1271;22546;-87
2022/06/20 02:44:23;;;;;;;15.90;5.20;;;;;;;19.12;53.07;98421.40;106348;1271;24216;-89
2022/06/20 02:46:59;;;;;;;14.90;5.20;;;;;;;19.05;53.21;98416.85;106319;1271;22619;-86
2022/06/20 02:50:03;;;;;;;15.60;5.30;;;;;;;18.99;53.28;98410.04;104589;1271;2591800;-87
2022/06/20 02:54:12;;;;;;;12.40;4.70;;;;;;;18.91;53.46;98401.93;106318;1271;22687;-88
2022/06/20 02:57:31;;;;;;;13.70;5.10;;;;;;;18.89;53.87;98401.42;105724;1280;22661;-87
2022/06/20 03:00:38;;;;;;;15.00;4.70;;;;;;;18.90;53.70;98409.38;105732;1280;22596;-89
2022/06/20 03:03:59;;;;;;;13.80;4.60;;;;;;;18.95;53.74;98409.91;105799;1280;24363;-88
2022/06/20 03:07:00;;;;;;;;;;;;;;;;;;;;;
2022/06/20 03:09:54;;;;;;;14.80;4.70;;;;;;;18.88;53.94;98415.70;106327;1277;24406;-87
2022/06/20 03:13:07;;;;;;;12.20;5.10;;;;;;;18.79;54.05;98420.80;106093;1277;24244;-87
2022/06/20 03:16:17;;;;;;;13.50;5.50;;;;;;;18.62;54.27;98421.31;105946;1277;22643;-87
2022/06/20 03:19:20;;;;;;;15.30;5.30;;;;;;;18.62;54.57;98429.89;106105;1277;22555;-87
2022/06/20 03:22:30;;;;;;;16.10;5.50;;;;;;;18.61;54.69;98429.13;105983;1277;22543;-87
2022/06/20 03:25:38;;;;;;;;;;;;;;;;;;;;;
2022/06/20 03:29:08;;;;;;;15.50;5.50;;;;;;;18.75;54.72;98420.02;106340;1276;22570;-86
2022/06/20 03:32:09;;;;;;;15.30;6.00;;;;;;;18.81;55.00;98409.80;106280;1274;23844;-86
2022/06/20 03:35:15;;;;;;;;;;;;;;;;;;;;;
2022/06/20 03:38:06;;;;;;;19.50;6.90;;;;;;;19.06;54.93;98403.00;106155;1274;22639;-86
2022/06/20 03:41:33;;;;;;;19.50;6.80;;;;;;;19.06;54.95;98408.38;106496;1274;24415;-86
2022/06/20 03:44:55;;;;;;;22.00;7.00;;;;;;;18.92;55.20;98403.54;105794;1281;24213;-88
2022/06/20 03:48:40;;;;;;;;;;;;;;;;;;;;;
2022/06/20 03:51:47;;;;;;;17.80;8.40;;;;;;;18.98;55.38;98415.04;105367;1284;22489;-87
2022/06/20 03:55:12;;;;;;;20.10;8.50;;;;;;;19.15;55.41;98412.20;105420;1284;24447;-87
2022/06/20 03:58:13;;;;;;;;;;;;;;;;;;;;;
2022/06/20 04:01:33;;;;;;;17.80;7.60;;;;;;;19.47;55.51;98399.80;105604;1283;24369;-87
2022/06/20 04:05:02;;;;;;;;;;;;;;;;;;;;;
2022/06/20 04:08:21;;;;;;;16.60;7.90;;;;;;;19.80;55.25;98407.48;105915;1283;22779;-87
2022/06/20 04:11:16;;;;;;;19.30;8.70;;;;;;;19.89;55.29;98397.83;105413;1283;22566;-86
2022/06/20 04:14:20;;;;;;;15.10;8.50;;;;;;;19.98;55.28;98402.80;105666;1283;25299;-87
2022/06/20 04:21:37;;;;;;;18.20;8.30;;;;;;;20.12;55.03;98401.20;105321;1279;22610;-87
2022/06/20 04:25:38;;;;;;;18.50;8.70;;;;;;;20.21;55.39;98399.08;105686;1279;22544;-88
2022/06/20 04:29:35;;;;;;;17.80;7.50;;;;;;;20.37;55.11;98398.07;105674;1279;22585;-83
2022/06/20 04:33:17;;;;;;;;;;;;;;;;;;;;;
2022/06/20 04:36:43;;;;;;;17.80;7.70;;;;;;;20.69;55.29;98398.50;105003;1289;22730;-87
2022/06/20 04:39:39;;;;;;;17.00;8.30;;;;;;;20.80;55.21;98401.47;104293;1294;25384;-85
2022/06/20 04:42:43;;;;;;;22.80;8.50;;;;;;;20.82;55.17;98397.45;104119;1294;22601;-87
2022/06/20 04:45:50;;;;;;;15.90;7.60;;;;;;;20.90;55.22;98395.61;104129;1295;24570;-86
2022/06/20 04:48:56;;;;;;;25.90;8.90;;;;;;;20.95;55.18;98385.64;104129;1295;22605;-85
2022/06/20 04:51:59;;;;;;;17.40;7.50;;;;;;;20.99;55.12;98386.52;104050;1295;23255;-86
2022/06/20 04:54:55;;;;;;;17.80;8.30;;;;;;;21.03;55.13;98384.89;104249;1294;24390;-86
2022/06/20 04:58:36;;;;;;;;;;;;;;;;;;;;;
2022/06/20 05:01:23;;;;;;;17.10;7.20;;;;;;;21.30;55.27;98381.44;103654;1303;23105;-88
2022/06/20 05:04:25;;;;;;;19.70;8.00;;;;;;;21.43;55.19;98383.23;104079;1294;24296;-86
2022/06/20 05:08:24;;;;;;;19.50;7.80;;;;;;;21.54;55.38;98381.20;104555;1291;22657;-86
2022/06/20 05:11:24;;;;;;;16.50;7.80;;;;;;;21.70;55.24;98371.37;103939;1300;25620;-86
2022/06/20 05:15:33;;;;;;;15.60;7.50;;;;;;;21.83;55.27;98360.77;104809;1294;22553;-85
2022/06/20 05:18:21;;;;;;;16.20;7.70;;;;;;;21.91;55.03;98351.40;104977;1288;22954;-86
2022/06/20 05:21:39;;;;;;;21.70;8.40;;;;;;;22.08;55.13;98343.98;104974;1288;22623;-85
2022/06/20 05:24:41;;;;;;;15.80;7.60;;;;;;;22.23;55.04;98338.20;104521;1291;25329;-85
2022/06/20 05:27:57;;;;;;;15.40;8.20;;;;;;;22.32;55.07;98329.05;104256;1294;22814;-88
2022/06/20 05:31:09;;;;;;;19.20;8.10;;;;;;;22.42;55.12;98323.02;103862;1300;24550;-86
2022/06/20 05:34:38;;;;;;;18.90;7.40;;;;;;;22.55;54.99;98319.98;103897;1300;22703;-88
2022/06/20 05:38:09;;;;;;;;;;;;;;;;;;;;;
2022/06/20 05:41:55;;;;;;;;;;;;;;;;;;;;;
2022/06/20 05:45:09;;;;;;;21.30;8.10;;;;;;;22.98;55.20;98315.96;104401;1300;23963;-86
2022/06/20 05:48:22;;;;;;;18.10;8.00;;;;;;;22.99;55.15;98313.75;104068;1294;22767;-86
2022/06/20 05:52:07;;;;;;;14.90;7.50;;;;;;;22.95;55.16;98312.23;104461;1294;22615;-88
2022/06/20 05:55:00;;;;;;;15.30;7.30;;;;;;;22.84;55.02;98310.81;104327;1294;22534;-87
2022/06/20 05:58:20;;;;;;;18.10;8.00;;;;;;;22.69;54.72;98308.30;104242;1294;22592;-87
2022/06/20 06:01:30;;;;;;;19.00;8.40;;;;;;;22.80;55.40;98298.45;104526;1288;25465;-86
2022/06/20 06:05:39;;;;;;;18.00;8.60;;;;;;;23.09;55.29;98292.69;105280;1287;22547;-87
2022/06/20 06:08:46;;;;;;;;;;;;;;;;;;;;;
2022/06/20 06:13:05;;;;;;;17.40;7.40;;;;;;;23.11;55.39;98283.47;105350;1284;22548;-86
2022/06/20 06:20:09;;;;;;;18.30;9.20;;;;;;;23.13;55.36;98262.73;104509;1294;22564;-85
2022/06/20 06:27:25;;;;;;;15.60;6.90;;;;;;;23.91;55.42;98246.80;103694;1303;25386;-84
2022/06/20 06:30:55;;;;;;;14.20;6.90;;;;;;;24.19;55.24;98233.70;103774;1302;22567;-86
2022/06/20 06:34:44;;;;;;;;;;;;;;;;;;;;;
2022/06/20 06:42:18;;;;;;;;;;;;;;;;;;;;;
2022/06/20 06:45:20;;;;;;;14.00;6.50;;;;;;;24.99;54.93;98194.70;105540;1284;24735;-86
2022/06/20 06:48:26;;;;;;;16.20;6.40;;;;;;;25.16;54.74;98176.50;105315;1286;22578;-84
2022/06/20 06:52:04;;;;;;;14.30;6.20;;;;;;;25.18;54.68;98173.45;105162;1286;22550;-85
2022/06/20 06:54:48;;;;;;;14.50;6.40;;;;;;;25.27;54.77;98163.90;105288;1286;22626;-84
2022/06/20 06:58:12;;;;;;;13.30;6.10;;;;;;;25.48;54.84;98143.16;104312;1289;27367;-86
2022/06/20 07:01:15;;;;;;;;;;;;;;;;;;;;;
2022/06/20 07:04:17;;;;;;;16.00;6.50;;;;;;;25.41;54.57;98118.98;104581;1295;22592;-85
2022/06/20 07:07:15;;;;;;;17.10;7.00;;;;;;;25.61;54.69;98118.67;104302;1295;24280;-88
2022/06/20 07:09:54;;;;;;;17.20;6.30;;;;;;;25.90;54.91;98113.08;104296;1295;23514;-84
2022/06/20 07:13:02;;;;;;;15.10;5.90;;;;;;;26.20;54.69;98110.33;104190;1298;25483;-87
2022/06/20 07:15:55;;;;;;;15.50;6.50;;;;;;;26.38;54.35;98108.33;105104;1287;25479;-85
2022/06/20 07:18:57;;;;;;;17.00;6.30;;;;;;;26.16;54.25;98112.44;105163;1287;22737;-85
2022/06/20 07:21:38;;;;;;;14.50;6.30;;;;;;;25.86;54.24;98127.02;105326;1287;22570;-85
2022/06/20 07:24:24;;;;;;;15.40;5.80;;;;;;;25.75;54.58;98137.52;105644;1283;22720;-85
2022/06/20 07:27:20;;;;;;;16.70;6.00;;;;;;;25.75;54.66;98146.88;105308;1283;24101;-86
2022/06/20 07:30:31;;;;;;;14.50;6.50;;;;;;;25.47;54.70;98142.48;105523;1283;22573;-84
2022/06/20 07:33:42;;;;;;;;;;;;;;;;;;;;;
2022/06/20 07:37:16;;;;;;;20.20;6.70;;;;;;;24.83;54.57;98117.71;105880;1279;22569;-87
2022/06/20 07:40:57;;;;;;;18.40;7.10;;;;;;;24.48;55.08;98144.73;105835;1279;24344;-85
2022/06/20 07:44:42;;;;;;;16.40;7.10;;;;;;;24.13;55.11;98166.30;105512;1285;22576;-85
2022/06/20 07:47:34;;;;;;;;;;;;;;;;;;;;;
2022/06/20 07:50:23;;;;;;;19.50;7.10;;;;;;;23.60;55.77;98121.63;104874;1289;26501;-85
2022/06/20 07:53:55;;;;;;;14.40;6.20;;;;;;;23.39;55.85;98111.59;104793;1289;22709;-84
2022/06/20 07:56:50;;;;;;;21.20;6.20;;;;;;;23.23;56.40;98088.48;104652;1290;25551;-85
2022/06/20 07:59:33;;;;;;;19.80;6.50;;;;;;;23.08;56.42;98084.97;104736;1289;24384;-87
2022/06/20 08:02:59;;;;;;;15.10;6.40;;;;;;;22.94;56.57;98092.16;104722;1289;25495;-85
2022/06/20 08:05:43;;;;;;;14.20;6.70;;;;;;;22.80;56.81;98105.60;104635;1288;24406;-86
2022/06/20 08:09:13;;;;;;;;;;;;;;;;;;;;;
2022/06/20 08:12:38;;;;;;;27.40;11.80;;;;;;;22.48;57.01;98152.26;104116;1294;23508;-90
2022/06/20 08:15:40;;;;;;;;;;;;;;;;;;;;;
2022/06/20 08:18:17;;;;;;;22.10;10.50;;;;;;;22.23;57.35;98067.00;104199;1288;22548;-86
2022/06/20 08:20:58;;;;;;;15.80;7.60;;;;;;;22.19;57.58;98047.70;104892;1287;22636;-87
2022/06/20 08:23:41;;;;;;;16.30;7.80;;;;;;;22.18;57.63;98062.45;104928;1282;22573;-86
2022/06/20 08:26:43;;;;;;;18.30;7.70;;;;;;;22.18;57.69;98059.38;105630;1281;22624;-87
2022/06/20 08:29:47;;;;;;;16.60;8.20;;;;;;;22.22;57.91;98041.66;105605;1281;22580;-86
2022/06/20 08:32:25;;;;;;;20.50;8.60;;;;;;;22.27;58.07;98031.20;105520;1281;22780;-85
2022/06/20 08:35:25;;;;;;;;;;;;;;;;;;;;;
2022/06/20 08:38:21;;;;;;;19.20;8.50;;;;;;;22.42;58.06;98048.17;105666;1281;22572;-87
2022/06/20 08:41:14;;;;;;;14.40;7.70;;;;;;;22.21;58.13;98115.66;105774;1281;24477;-87
2022/06/20 08:44:01;;;;;;;;;;;;;;;;;;;;;
2022/06/20 08:47:44;;;;;;;15.30;7.60;;;;;;;21.94;58.83;98130.72;105686;1274;22708;-85
2022/06/20 08:51:44;;;;;;;13.60;6.60;;;;;;;22.23;58.89;98089.05;105597;1281;24369;-86
2022/06/20 08:55:30;;;;;;;;;;;;;;;;;;;;;
2022/06/20 08:58:55;;;;;;;29.90;7.20;;;;;;;22.83;59.00;98127.67;104905;1288;24219;-85
2022/06/20 09:02:06;;;;;;;17.80;7.80;;;;;;;23.15;58.87;98091.17;105165;1287;24256;-88
2022/06/20 09:05:23;;;;;;;16.20;6.80;;;;;;;23.40;59.01;98082.54;104845;1288;22852;-85
2022/06/20 09:08:39;;;;;;;15.40;6.30;;;;;;;23.57;58.68;98136.34;104828;1290;25292;-86
2022/06/20 09:12:12;;;;;;;19.80;6.70;;;;;;;23.53;58.47;98158.74;104438;1291;23945;-85
2022/06/20 09:15:03;;;;;;;18.10;7.00;;;;;;;23.52;58.99;98174.13;104240;1294;24351;-87
2022/06/20 09:17:44;;;;;;;14.70;5.60;;;;;;;23.40;58.41;98233.45;104411;1291;22583;-86
2022/06/20 09:20:51;;;;;;;15.00;6.50;;;;;;;23.19;58.32;98243.61;104558;1294;25271;-85
2022/06/20 09:23:57;;;;;;;14.50;6.30;;;;;;;23.13;59.02;98236.33;104682;1290;22557;-87
2022/06/20 09:26:35;;;;;;;15.50;6.90;;;;;;;23.13;59.31;98246.89;104860;1288;22554;-85
2022/06/20 09:29:50;;;;;;;16.70;6.90;;;;;;;23.12;59.33;98237.00;104931;1284;23926;-86
2022/06/20 09:32:57;;;;;;;16.40;6.90;;;;;;;23.09;59.28;98224.89;105480;1282;22699;-87
2022/06/20 09:36:00;;;;;;;15.40;7.10;;;;;;;23.05;59.59;98213.42;105343;1282;23004;-86
2022/06/20 09:39:12;;;;;;;15.30;7.40;;;;;;;22.88;59.56;98214.80;105554;1281;22563;-87
2022/06/20 09:42:37;;;;;;;15.40;6.30;;;;;;;22.72;59.71;98219.46;105659;1281;24394;-85
2022/06/20 09:45:43;;;;;;;11.30;5.80;;;;;;;22.71;59.99;98223.19;105066;1285;22557;-86
2022/06/20 09:48:43;;;;;;;18.60;7.00;;;;;;;22.75;59.91;98228.13;105342;1279;22571;-89
2022/06/20 09:51:43;;;;;;;13.60;7.10;;;;;;;22.78;60.18;98231.33;105354;1286;22909;-86
2022/06/20 09:55:49;;;;;;;17.70;7.90;;;;;;;22.76;60.21;98220.05;105488;1285;23978;-86
2022/06/20 09:59:21;;;;;;;;;;;;;;;;;;;;;
2022/06/20 10:05:42;;;;;;;15.30;7.70;;;;;;;22.52;60.38;98198.30;104850;1285;22822;-86
2022/06/20 10:08:30;;;;;;;18.20;7.70;;;;;;;22.48;60.75;98185.29;105381;1285;25721;-85
2022/06/20 10:11:53;;;;;;;17.20;7.60;;;;;;;22.54;60.95;98171.73;105386;1285;22576;-88
2022/06/20 10:15:21;;;;;;;16.60;7.40;;;;;;;22.46;60.60;98173.52;105364;1285;22562;-87
2022/06/20 10:19:00;;;;;;;16.20;8.30;;;;;;;22.19;60.77;98184.06;104480;1291;22567;-87
2022/06/20 10:23:00;;;;;;;;;;;;;;;;;;;;;
2022/06/20 10:27:27;;;;;;;16.20;8.50;;;;;;;21.53;59.99;98162.69;104198;1294;22570;-85
2022/06/20 10:30:49;;;;;;;;;;;;;;;;;;;;;
2022/06/20 10:34:42;;;;;;;22.80;10.10;;;;;;;20.45;60.55;98168.25;105183;1287;25256;-89
2022/06/20 10:37:48;;;;;;;25.20;10.60;;;;;;;20.24;60.68;98186.64;105049;1287;22617;-85
2022/06/20 10:41:44;;;;;;;;;;;;;;;;;;;;;
2022/06/20 10:45:56;;;;;;;18.40;9.30;;;;;;;19.84;61.10;98223.52;104173;1300;22746;-86
2022/06/20 10:49:15;;;;;;;19.80;11.30;;;;;;;19.74;61.06;98244.14;103853;1299;22643;-87
2022/06/20 10:53:00;;;;;;;;;;;;;;;;;;;;;
2022/06/20 11:00:46;;;;;;;;;;;;;;;;;;;;;
2022/06/20 11:04:17;;;;;;;;;;;;;;;;;;;;;
2022/06/20 11:08:00;;;;;;;;;;;;;;;;;;;;;
2022/06/20 11:11:56;;;;;;;;;;;;;;;;;;;;;
2022/06/20 11:15:39;;;;;;;25.10;13.40;;;;;;;19.47;61.76;98297.58;104570;1291;23963;-85
2022/06/20 11:18:58;;;;;;;;;;;;;;;;;;;;;
2022/06/20 11:23:07;;;;;;;25.00;13.60;;;;;;;19.14;61.95;98311.43;105733;1279;23961;-86
2022/06/20 11:26:13;;;;;;;;;;;;;;;;;;;;;
2022/06/20 11:29:25;;;;;;;;;;;;;;;;;;;;;
2022/06/20 11:32:37;;;;;;;;;;;;;;;;;;;;;
2022/06/20 11:35:55;;;;;;;;;;;;;;;;;;;;;
2022/06/20 11:39:59;;;;;;;25.60;14.10;;;;;;;19.21;62.18;98311.45;106389;1273;22701;-86
2022/06/20 11:43:07;;;;;;;19.00;13.00;;;;;;;19.24;62.40;98308.77;106406;1274;24361;-85
2022/06/20 11:46:24;;;;;;;18.20;11.20;;;;;;;19.26;62.42;98305.56;106178;1273;25225;-84
2022/06/20 11:49:29;;;;;;;20.80;13.20;;;;;;;19.16;62.05;98318.05;106463;1274;25297;-86
2022/06/20 11:53:25;;;;;;;;;;;;;;;;;;;;;
2022/06/20 11:56:52;;;;;;;23.70;13.80;;;;;;;19.54;62.86;98265.15;106868;1271;22823;-86
2022/06/20 11:59:50;;;;;;;27.80;15.70;;;;;;;19.73;62.52;98271.69;106374;1271;25510;-84
2022/06/20 12:03:07;;;;;;;31.20;16.60;;;;;;;19.70;62.16;98275.48;106491;1271;22602;-83
2022/06/20 12:06:30;;;;;;;21.80;13.10;;;;;;;19.71;62.43;98306.06;106360;1271;22760;-87
2022/06/20 12:09:49;;;;;;;22.50;12.60;;;;;;;19.69;62.52;98307.89;106371;1271;23172;-86
2022/06/20 12:13:26;;;;;;;23.20;12.70;;;;;;;19.75;62.50;98321.04;106489;1271;25484;-85
2022/06/20 12:16:46;;;;;;;20.20;13.60;;;;;;;19.64;62.37;98324.56;105221;1285;22680;-86
2022/06/20 12:23:25;;;;;;;24.00;13.80;;;;;;;19.51;62.84;98332.70;105448;1285;24079;-87
2022/06/20 12:25:57;;;;;;;25.40;12.90;;;;;;;19.57;62.85;98340.84;105394;1285;22754;-85
2022/06/20 12:29:14;;;;;;;;;;;;;;;;;;;;;
2022/06/20 12:32:50;;;;;;;24.80;14.20;;;;;;;19.57;62.92;98325.60;105190;1285;24322;-85
2022/06/20 12:36:02;;;;;;;;;;;;;;;;;;;;;
2022/06/20 12:39:56;;;;;;;;;;;;;;;;;;;;;
2022/06/20 12:43:24;;;;;;;28.70;14.20;;;;;;;19.44;62.78;98300.31;104804;1291;22605;-84
2022/06/20 12:47:41;;;;;;;16.80;9.30;;;;;;;19.35;62.92;98300.71;104705;1290;22686;-88
2022/06/20 12:55:22;;;;;;;24.70;15.20;;;;;;;19.48;63.00;98322.38;105499;1279;24222;-85
2022/06/20 12:58:12;;;;;;;26.00;14.80;;;;;;;19.57;63.27;98308.86;105783;1279;23963;-86
2022/06/20 13:02:21;;;;;;;28.40;14.30;;;;;;;19.84;63.11;98282.87;106138;1277;22561;-87
2022/06/20 13:05:37;;;;;;;29.60;14.40;;;;;;;20.05;62.83;98274.50;105931;1277;22625;-87
2022/06/20 13:08:48;;;;;;;25.70;14.90;;;;;;;19.95;62.95;98256.63;105890;1279;24194;-86
2022/06/20 13:12:35;;;;;;;24.60;13.10;;;;;;;19.98;63.08;98267.38;106072;1271;22525;-87
2022/06/20 13:16:35;;;;;;;23.30;13.60;;;;;;;19.85;63.10;98288.71;106772;1271;23945;-86
2022/06/20 13:20:37;;;;;;;;;;;;;;;;;;;;;
2022/06/20 13:24:17;;;;;;;24.40;13.60;;;;;;;19.80;63.08;98295.31;105793;1281;24295;-86
2022/06/20 13:28:21;;;;;;;23.50;13.90;;;;;;;19.73;63.54;98301.19;105716;1281;26703;-85
2022/06/20 13:32:09;;;;;;;27.50;13.60;;;;;;;19.67;63.54;98304.04;105783;1280;22546;-86
2022/06/20 13:36:01;;;;;;;24.90;14.00;;;;;;;19.66;63.56;98296.77;106171;1280;22587;-85
2022/06/20 13:39:07;;;;;;;24.20;13.50;;;;;;;19.68;63.35;98271.58;104621;1290;22591;-85
2022/06/20 13:42:30;;;;;;;;;;;;;;;;;;;;;
2022/06/20 13:46:11;;;;;;;19.10;10.20;;;;;;;19.92;63.55;98250.63;104201;1299;22727;-91
2022/06/20 13:49:59;;;;;;;20.00;11.70;;;;;;;19.78;63.18;98247.78;103484;1303;24512;-89
2022/06/20 13:53:22;;;;;;;20.80;11.00;;;;;;;19.57;63.35;98250.52;103321;1311;22623;-87
2022/06/20 13:56:37;;;;;;;17.90;11.20;;;;;;;19.49;63.45;98261.23;102434;1314;25627;-86
2022/06/20 14:00:55;;;;;;;19.40;11.50;;;;;;;19.44;63.75;98254.95;102976;1314;22600;-88
2022/06/20 14:03:46;;;;;;;;;;;;;;;;;;;;;
2022/06/20 14:10:58;;;;;;;17.00;10.60;;;;;;;19.30;63.96;98282.18;103064;1314;25559;-87
2022/06/20 14:14:44;;;;;;;18.00;11.10;;;;;;;19.20;64.28;98282.32;101821;1320;22720;-86
2022/06/20 14:26:32;;;;;;;;;;;;;;;;;;;;;
2022/06/20 14:30:36;;;;;;;;;;;;;;;;;;;;;
2022/06/20 14:34:26;;;;;;;;;;;;;;;;;;;;;
2022/06/20 14:37:25;;;;;;;15.10;9.70;;;;;;;18.82;64.88;98315.19;104257;1293;22905;-87
2022/06/20 14:41:02;;;;;;;;;;;;;;;;;;;;;
2022/06/20 14:45:04;;;;;;;;;;;;;;;;;;;;;
2022/06/20 14:48:51;;;;;;;;;;;;;;;;;;;;;
2022/06/20 14:52:25;;;;;;;19.40;10.90;;;;;;;18.30;65.51;98321.17;104327;1292;22568;-87
2022/06/20 15:00:33;;;;;;;13.50;7.70;;;;;;;18.42;65.66;98304.73;104146;1297;22581;-86
2022/06/20 15:03:35;;;;;;;;;;;;;;;;;;;;;
2022/06/20 15:07:35;;;;;;;13.20;7.70;;;;;;;18.28;65.77;98306.96;105145;1287;25667;-84
2022/06/20 15:10:25;;;;;;;11.90;8.20;;;;;;;18.36;65.88;98315.02;104786;1287;24297;-83
2022/06/20 15:13:23;;;;;;;13.60;8.40;;;;;;;18.31;65.64;98322.12;105093;1287;25377;-83
2022/06/20 15:16:10;;;;;;;11.70;7.30;;;;;;;18.24;65.78;98328.88;105186;1287;22563;-87
2022/06/20 15:18:59;;;;;;;11.70;7.10;;;;;;;18.11;65.83;98336.69;104896;1288;22577;-86
2022/06/20 15:23:15;;;;;;;13.40;6.80;;;;;;;17.99;65.72;98358.06;105435;1287;25477;-85
2022/06/20 15:26:47;;;;;;;9.80;5.70;;;;;;;17.63;65.79;98359.77;105696;1287;22719;-89
2022/06/20 15:30:25;;;;;;;7.90;4.60;;;;;;;17.23;65.71;98370.71;104596;1294;24513;-87
2022/06/20 15:34:12;;;;;;;9.80;4.30;;;;;;;16.98;65.90;98376.30;104430;1293;24018;-84
2022/06/20 15:40:55;;;;;;;8.00;4.20;;;;;;;16.48;66.52;98412.64;104979;1287;23013;-87
2022/06/20 15:44:00;;;;;;;8.10;3.80;;;;;;;16.41;66.58;98432.83;105166;1286;24191;-87
2022/06/20 15:47:50;;;;;;;;;;;;;;;;;;;;;
2022/06/20 15:51:49;;;;;;;;;;;;;;;;;;;;;
2022/06/20 15:54:39;;;;;;;4.90;2.00;;;;;;;15.92;66.27;98455.19;105261;1287;22559;-87
2022/06/20 15:57:51;;;;;;;8.70;2.00;;;;;;;15.70;66.36;98464.26;105191;1287;24195;-82
2022/06/20 16:04:53;;;;;;;6.80;1.50;;;;;;;15.55;67.12;98491.46;105214;1286;22609;-84
2022/06/20 16:08:05;;;;;;;5.40;1.60;;;;;;;15.47;66.68;98499.84;105755;1281;22560;-86
2022/06/20 16:11:13;;;;;;;;;;;;;;;;;;;;;
2022/06/20 16:18:50;;;;;;;;;;;;;;;;;;;;;
2022/06/20 16:22:13;;;;;;;1.90;0.70;;;;;;;14.97;67.06;98525.23;103825;1300;23116;-87
2022/06/20 16:25:18;;;;;;;3.40;1.00;;;;;;;14.84;67.03;98527.41;104062;1302;24313;-85
2022/06/20 16:28:27;;;;;;;2.20;0.70;;;;;;;14.68;67.21;98523.95;103819;1300;24472;-89
2022/06/20 16:31:23;;;;;;;2.40;0.70;;;;;;;14.59;67.22;98531.70;103740;1300;24594;-88
2022/06/20 16:35:04;;;;;;;;;;;;;;;;;;;;;
2022/06/20 16:39:01;;;;;;;;;;;;;;;;;;;;;
2022/06/20 16:46:20;;;;;;;3.00;0.80;;;;;;;14.39;67.77;98553.48;107450;1263;24246;-90
2022/06/20 16:49:37;;;;;;;;;;;;;;;;;;;;;
2022/06/20 16:53:47;;;;;;;4.60;0.90;;;;;;;14.69;68.04;98533.73;106038;1276;25364;-91
2022/06/20 16:56:30;;;;;;;3.80;1.30;;;;;;;14.97;68.10;98523.66;105999;1277;23209;-89
2022/06/20 16:59:47;;;;;;;2.70;0.90;;;;;;;15.26;67.88;98511.79;106356;1278;22604;-89
2022/06/20 17:03:08;;;;;;;3.50;1.20;;;;;;;15.28;67.37;98511.95;105711;1278;22542;-91
2022/06/20 17:06:44;;;;;;;;;;;;;;;;;;;;;
2022/06/20 17:10:48;;;;;;;2.90;0.80;;;;;;;15.48;67.12;98504.77;105606;1284;26553;-90
2022/06/20 17:18:22;;;;;;;;;;;;;;;;;;;;;
2022/06/20 17:21:48;;;;;;;4.30;1.20;;;;;;;15.38;67.08;98486.57;106436;1281;24121;-89
2022/06/20 17:25:17;;;;;;;;;;;;;;;;;;;;;
2022/06/20 17:28:47;;;;;;;4.50;1.10;;;;;;;15.28;67.62;98448.52;105590;1282;22562;-89
2022/06/20 17:32:09;;;;;;;8.50;1.30;;;;;;;15.40;67.75;98461.77;104938;1290;22538;-89
2022/06/20 17:35:25;;;;;;;15.40;3.30;;;;;;;15.49;67.69;98473.14;104928;1291;23844;-89
2022/06/20 17:38:26;;;;;;;12.60;2.70;;;;;;;15.51;67.24;98490.65;105246;1288;23419;-89
2022/06/20 17:41:31;;;;;;;8.20;1.70;;;;;;;15.62;67.58;98484.45;105092;1288;22603;-90
2022/06/20 17:45:28;;;;;;;;;;;;;;;;;;;;;
2022/06/20 17:48:57;;;;;;;8.20;1.10;;;;;;;15.66;67.61;98497.52;106687;1265;22549;-89
2022/06/20 17:52:07;;;;;;;6.00;0.90;;;;;;;15.56;67.29;98530.36;106884;1276;22552;-92
2022/06/20 17:58:30;;;;;;;2.80;0.80;;;;;;;15.08;67.28;98561.83;106216;1277;24711;-88
2022/06/20 18:01:55;;;;;;;3.00;0.80;;;;;;;14.92;67.36;98561.27;108313;1269;22847;-89
2022/06/20 18:05:06;;;;;;;4.00;0.70;;;;;;;14.68;67.42;98555.84;107354;1284;23704;-92
2022/06/20 18:08:29;;;;;;;;;;;;;;;;;;;;;
2022/06/20 18:11:46;;;;;;;3.80;0.50;;;;;;;14.55;67.84;98551.59;107382;1284;22564;-89
2022/06/20 18:15:13;;;;;;;3.00;0.70;;;;;;;14.68;67.77;98560.96;107531;1284;22596;-91
2022/06/20 18:18:51;;;;;;;;;;;;;;;;;;;;;
2022/06/20 18:22:19;;;;;;;2.70;0.60;;;;;;;14.67;67.78;98589.31;106363;1290;22846;-88
2022/06/20 18:25:38;;;;;;;2.20;0.60;;;;;;;14.51;67.81;98587.14;106403;1290;23455;-89
2022/06/20 18:28:57;;;;;;;1.30;0.60;;;;;;;14.43;67.90;98584.06;106427;1291;24248;-89
2022/06/20 18:32:07;;;;;;;2.50;0.70;;;;;;;14.40;68.03;98577.20;106572;1290;22590;-91
2022/06/20 18:39:10;;;;;;;;;;;;;;;;;;;;;
2022/06/20 18:42:35;;;;;;;3.20;0.90;;;;;;;14.65;68.25;98556.59;106249;1293;26631;-92
2022/06/20 18:46:15;;;;;;;;;;;;;;;;;;;;;
2022/06/20 18:50:01;;;;;;;;;;;;;;;;;;;;;
2022/06/20 18:53:55;;;;;;;3.40;0.80;;;;;;;14.44;68.29;98561.06;105851;1306;24069;-90
2022/06/20 18:57:21;;;;;;;3.20;1.00;;;;;;;14.47;68.37;98541.81;100096;1308;6961082;-91
2022/06/20 19:01:22;;;;;;;;;;;;;;;;;;;;;
2022/06/20 19:04:54;;;;;;;3.90;0.80;;;;;;;14.36;68.36;98542.67;105217;1308;22631;-91
2022/06/20 19:08:24;;;;;;;;;;;;;;;;;;;;;
2022/06/20 19:12:03;;;;;;;4.60;0.80;;;;;;;14.32;68.42;98545.70;105593;1307;22846;-90
2022/06/20 19:15:48;;;;;;;;;;;;;;;;;;;;;
2022/06/20 19:19:46;;;;;;;6.50;1.20;;;;;;;14.35;68.66;98558.32;105433;1303;22500;-91
2022/06/20 19:23:40;;;;;;;;;;;;;;;;;;;;;
2022/06/20 19:28:05;;;;;;;6.70;1.50;;;;;;;14.54;68.83;98572.86;106999;1287;22554;-91